createdAt,value
2019-05-19T00:01:33.529Z,14.10
2019-05-19T00:04:02.360Z,14.10
2019-05-19T00:06:31.159Z,14.10
2019-05-19T00:09:02.601Z,14.00
2019-05-19T00:11:31.438Z,14.00
2019-05-19T00:14:06.120Z,14.00
2019-05-19T00:16:34.908Z,14.00
2019-05-19T00:19:03.759Z,14.00
2019-05-19T00:21:35.162Z,14.00
2019-05-19T00:24:04.036Z,14.00
2019-05-19T00:26:32.870Z,14.00
2019-05-19T00:29:07.349Z,14.00
2019-05-19T00:31:36.132Z,14.00
2019-05-19T00:34:04.963Z,13.90
2019-05-19T00:36:33.736Z,13.90
2019-05-19T00:39:02.543Z,13.90
2019-05-19T00:41:31.373Z,13.90
2019-05-19T00:44:00.212Z,13.90
2019-05-19T00:46:28.963Z,13.90
2019-05-19T00:48:57.800Z,13.90
2019-05-19T00:51:26.578Z,13.90
2019-05-19T00:53:55.343Z,13.90
2019-05-19T00:56:24.769Z,13.90
2019-05-19T00:58:55.576Z,13.90
2019-05-19T01:01:30.453Z,13.90
2019-05-19T01:04:02.313Z,13.90
2019-05-19T01:06:31.204Z,13.90
2019-05-19T01:09:00.073Z,13.90
2019-05-19T01:11:31.932Z,13.90
2019-05-19T01:14:06.579Z,13.90
2019-05-19T01:16:38.010Z,13.90
2019-05-19T01:19:06.868Z,14.00
2019-05-19T01:21:35.688Z,14.00
2019-05-19T01:24:10.457Z,14.00
2019-05-19T01:26:39.256Z,14.00
2019-05-19T01:29:08.149Z,14.00
2019-05-19T01:31:36.871Z,14.00
2019-05-19T01:34:08.696Z,14.00
2019-05-19T01:36:37.539Z,14.00
2019-05-19T01:39:12.123Z,14.00
2019-05-19T01:41:40.896Z,14.00
2019-05-19T01:44:09.777Z,14.00
2019-05-19T01:46:38.584Z,14.00
2019-05-19T01:49:07.385Z,14.00
2019-05-19T01:51:36.192Z,14.00
2019-05-19T01:54:06.988Z,14.00
2019-05-19T01:56:35.773Z,13.90
2019-05-19T01:59:04.652Z,13.90
2019-05-19T02:01:33.468Z,13.90
2019-05-19T02:04:02.249Z,13.90
2019-05-19T02:06:31.087Z,13.90
2019-05-19T02:09:04.134Z,13.90
2019-05-19T02:11:38.765Z,13.90
2019-05-19T02:14:13.303Z,13.90
2019-05-19T02:16:48.014Z,13.80
2019-05-19T02:19:16.855Z,13.90
2019-05-19T02:21:51.334Z,13.80
2019-05-19T02:24:20.216Z,13.90
2019-05-19T02:26:48.992Z,13.80
2019-05-19T02:29:17.772Z,13.80
2019-05-19T02:31:46.592Z,13.80
2019-05-19T02:34:18.090Z,13.80
2019-05-19T02:36:46.873Z,13.80
2019-05-19T02:39:21.476Z,13.80
2019-05-19T02:41:50.358Z,13.80
2019-05-19T02:44:21.142Z,13.70
2019-05-19T02:46:51.443Z,13.80
2019-05-19T02:49:28.723Z,13.80
2019-05-19T02:52:04.925Z,13.80
2019-05-19T02:54:35.101Z,13.80
2019-05-19T02:57:10.072Z,13.80
2019-05-19T02:59:39.327Z,13.80
2019-05-19T03:02:15.133Z,13.80
2019-05-19T03:04:43.931Z,13.80
2019-05-19T03:07:12.724Z,13.80
2019-05-19T03:09:41.627Z,13.80
2019-05-19T03:12:13.514Z,13.80
2019-05-19T03:14:43.256Z,13.80
2019-05-19T03:17:12.116Z,13.80
2019-05-19T03:19:46.945Z,13.80
2019-05-19T03:22:15.836Z,13.80
2019-05-19T03:24:44.778Z,13.80
2019-05-19T03:27:13.629Z,13.80
2019-05-19T03:29:49.766Z,13.80
2019-05-19T03:32:37.821Z,13.80
2019-05-19T03:35:06.653Z,13.80
2019-05-19T03:37:35.430Z,13.80
2019-05-19T03:40:07.170Z,13.80
2019-05-19T03:42:36.021Z,13.80
2019-05-19T03:45:06.587Z,13.80
2019-05-19T03:47:35.362Z,13.80
2019-05-19T03:50:09.885Z,13.80
2019-05-19T03:52:41.273Z,13.80
2019-05-19T03:55:10.065Z,13.80
2019-05-19T03:57:38.887Z,13.80
2019-05-19T04:00:08.512Z,13.80
2019-05-19T04:02:39.287Z,13.80
2019-05-19T04:05:08.833Z,13.70
2019-05-19T04:07:37.604Z,13.80
2019-05-19T04:10:07.265Z,13.80
2019-05-19T04:12:41.965Z,13.80
2019-05-19T04:15:10.846Z,13.80
2019-05-19T04:17:46.246Z,13.80
2019-05-19T04:20:15.247Z,13.80
2019-05-19T04:22:44.029Z,13.70
2019-05-19T04:25:12.922Z,13.70
2019-05-19T04:27:41.745Z,13.70
2019-05-19T04:30:10.629Z,13.70
2019-05-19T04:32:39.400Z,13.70
2019-05-19T04:35:08.228Z,13.70
2019-05-19T04:37:42.799Z,13.70
2019-05-19T04:40:11.845Z,13.60
2019-05-19T04:42:41.891Z,13.60
2019-05-19T04:45:16.685Z,13.60
2019-05-19T04:47:45.586Z,13.50
2019-05-19T04:50:14.580Z,13.50
2019-05-19T04:52:43.353Z,13.50
2019-05-19T04:55:18.030Z,13.50
2019-05-19T04:57:46.870Z,13.50
2019-05-19T05:00:19.368Z,13.50
2019-05-19T05:02:54.116Z,13.50
2019-05-19T05:05:22.926Z,13.50
2019-05-19T05:07:51.696Z,13.50
2019-05-19T05:10:20.545Z,13.50
2019-05-19T05:12:51.947Z,13.50
2019-05-19T05:15:20.734Z,13.50
2019-05-19T05:17:50.581Z,13.50
2019-05-19T05:20:19.426Z,13.60
2019-05-19T05:22:48.167Z,13.50
2019-05-19T05:25:22.828Z,13.50
2019-05-19T05:27:59.585Z,13.50
2019-05-19T05:30:28.352Z,13.60
2019-05-19T05:32:59.211Z,13.60
2019-05-19T05:35:33.800Z,13.60
2019-05-19T05:38:05.691Z,13.60
2019-05-19T05:40:35.604Z,13.60
2019-05-19T05:43:07.156Z,13.70
2019-05-19T05:45:41.990Z,13.70
2019-05-19T05:48:13.847Z,13.70
2019-05-19T05:50:48.628Z,13.60
2019-05-19T05:53:17.391Z,13.60
2019-05-19T05:55:46.227Z,13.60
2019-05-19T05:58:17.748Z,13.60
2019-05-19T06:00:46.884Z,13.60
2019-05-19T06:03:18.884Z,13.70
2019-05-19T06:05:47.684Z,13.70
2019-05-19T06:08:16.472Z,13.70
2019-05-19T06:10:45.317Z,13.70
2019-05-19T06:13:19.891Z,13.70
2019-05-19T06:15:49.093Z,13.80
2019-05-19T06:18:20.446Z,13.80
2019-05-19T06:20:49.233Z,13.70
2019-05-19T06:23:18.063Z,13.70
2019-05-19T06:25:49.487Z,13.80
2019-05-19T06:28:18.271Z,13.80
2019-05-19T06:30:47.154Z,13.80
2019-05-19T06:33:21.743Z,13.80
2019-05-19T06:35:50.852Z,13.80
2019-05-19T06:38:19.696Z,13.80
2019-05-19T06:40:54.225Z,13.90
2019-05-19T06:43:26.260Z,13.90
2019-05-19T06:45:55.064Z,13.80
2019-05-19T06:48:29.572Z,13.80
2019-05-19T06:50:58.467Z,13.90
2019-05-19T06:53:30.298Z,13.90
2019-05-19T06:55:59.114Z,13.90
2019-05-19T06:58:27.953Z,13.90
2019-05-19T07:00:59.974Z,13.80
2019-05-19T07:03:28.753Z,13.80
2019-05-19T07:05:57.586Z,13.90
2019-05-19T07:08:28.353Z,13.90
2019-05-19T07:10:57.165Z,14.00
2019-05-19T07:13:25.977Z,13.90
2019-05-19T07:15:57.895Z,14.00
2019-05-19T07:18:26.684Z,14.00
2019-05-19T07:20:55.529Z,14.00
2019-05-19T07:23:28.344Z,14.00
2019-05-19T07:25:54.744Z,14.10
2019-05-19T07:28:26.803Z,14.10
2019-05-19T07:30:55.580Z,14.20
2019-05-19T07:33:24.361Z,14.20
2019-05-19T07:35:59.048Z,14.20
2019-05-19T07:38:27.835Z,14.20
2019-05-19T07:40:56.630Z,14.20
2019-05-19T07:43:28.410Z,14.20
2019-05-19T07:45:57.188Z,14.20
2019-05-19T07:48:29.051Z,14.20
2019-05-19T07:50:57.879Z,14.20
2019-05-19T07:53:42.201Z,14.20
2019-05-19T07:55:59.717Z,14.20
2019-05-19T07:58:28.546Z,14.20
2019-05-19T08:00:58.384Z,14.20
2019-05-19T08:03:27.190Z,14.20
2019-05-19T08:05:57.102Z,14.20
2019-05-19T08:08:26.098Z,14.20
2019-05-19T08:10:54.886Z,14.10
2019-05-19T08:13:23.717Z,14.20
2019-05-19T08:15:52.499Z,14.20
2019-05-19T08:18:23.916Z,14.20
2019-05-19T08:20:52.760Z,14.20
2019-05-19T08:23:24.650Z,14.10
2019-05-19T08:25:53.493Z,14.10
2019-05-19T08:28:24.944Z,14.10
2019-05-19T08:30:59.622Z,14.10
2019-05-19T08:33:28.444Z,14.10
2019-05-19T08:35:57.288Z,14.10
2019-05-19T08:38:31.965Z,14.10
2019-05-19T08:41:00.795Z,14.00
2019-05-19T08:43:32.354Z,14.00
2019-05-19T08:46:01.165Z,14.00
2019-05-19T08:48:29.984Z,14.00
2019-05-19T08:50:58.864Z,14.00
2019-05-19T08:53:27.672Z,14.00
2019-05-19T08:55:59.095Z,14.00
2019-05-19T08:58:27.907Z,14.00
2019-05-19T09:00:58.699Z,13.90
2019-05-19T09:03:27.539Z,13.90
2019-05-19T09:05:56.372Z,13.90
2019-05-19T09:08:25.159Z,13.80
2019-05-19T09:10:54.023Z,13.90
2019-05-19T09:13:24.839Z,13.90
2019-05-19T09:15:54.608Z,13.90
2019-05-19T09:18:23.469Z,14.00
2019-05-19T09:20:55.376Z,14.00
2019-05-19T09:23:25.271Z,14.00
2019-05-19T09:25:54.064Z,14.00
2019-05-19T09:28:22.898Z,14.00
2019-05-19T09:30:57.509Z,14.00
2019-05-19T09:33:26.295Z,14.00
2019-05-19T09:35:57.888Z,14.10
2019-05-19T09:38:32.409Z,14.10
2019-05-19T09:41:07.071Z,14.10
2019-05-19T09:43:35.862Z,14.10
2019-05-19T09:46:10.376Z,14.20
2019-05-19T09:48:39.338Z,14.20
2019-05-19T09:51:08.147Z,14.30
2019-05-19T09:53:36.948Z,14.40
2019-05-19T09:56:05.795Z,14.40
2019-05-19T09:58:34.572Z,14.50
2019-05-19T10:01:04.607Z,14.50
2019-05-19T10:03:34.475Z,14.50
2019-05-19T10:06:03.241Z,14.50
2019-05-19T10:08:41.916Z,14.50
2019-05-19T10:11:14.065Z,14.50
2019-05-19T10:13:42.848Z,14.60
2019-05-19T10:16:13.728Z,14.50
2019-05-19T10:18:42.490Z,14.50
2019-05-19T10:21:14.358Z,14.50
2019-05-19T10:23:43.196Z,14.50
2019-05-19T10:26:11.993Z,14.50
2019-05-19T10:28:40.780Z,14.40
2019-05-19T10:31:12.259Z,14.40
2019-05-19T10:33:46.828Z,14.40
2019-05-19T10:36:15.635Z,14.30
2019-05-19T10:38:44.548Z,14.30
2019-05-19T10:41:16.006Z,14.30
2019-05-19T10:43:44.776Z,14.30
2019-05-19T10:46:13.595Z,14.30
2019-05-19T10:48:43.364Z,14.40
2019-05-19T10:51:12.153Z,14.40
2019-05-19T10:53:40.980Z,14.40
2019-05-19T10:56:12.795Z,14.50
2019-05-19T10:58:41.583Z,14.50
2019-05-19T11:01:10.523Z,14.50
2019-05-19T11:03:39.313Z,14.50
2019-05-19T11:06:09.085Z,14.50
2019-05-19T11:08:37.957Z,14.60
2019-05-19T11:11:06.787Z,14.70
2019-05-19T11:13:38.217Z,14.60
2019-05-19T11:16:07.032Z,14.60
2019-05-19T11:18:38.934Z,14.70
2019-05-19T11:21:07.712Z,14.70
2019-05-19T11:23:39.548Z,14.80
2019-05-19T11:26:08.325Z,14.90
2019-05-19T11:28:42.838Z,14.90
2019-05-19T11:31:11.657Z,14.90
2019-05-19T11:33:46.338Z,14.90
2019-05-19T11:36:15.141Z,15.00
2019-05-19T11:38:43.982Z,15.10
2019-05-19T11:41:12.794Z,15.10
2019-05-19T11:43:41.621Z,15.10
2019-05-19T11:46:13.504Z,15.10
2019-05-19T11:48:44.901Z,15.10
2019-05-19T11:51:13.680Z,15.00
2019-05-19T11:53:42.523Z,15.00
2019-05-19T11:56:11.665Z,15.00
2019-05-19T11:58:40.684Z,15.10
2019-05-19T12:01:09.535Z,15.10
2019-05-19T12:03:38.306Z,15.10
2019-05-19T12:06:12.813Z,15.10
2019-05-19T12:08:41.650Z,15.10
2019-05-19T12:11:10.439Z,15.10
2019-05-19T12:13:39.213Z,15.10
2019-05-19T12:16:08.051Z,15.10
2019-05-19T12:18:36.824Z,15.20
2019-05-19T12:21:05.597Z,15.20
2019-05-19T12:23:34.431Z,15.20
2019-05-19T12:26:22.282Z,15.20
2019-05-19T12:28:39.568Z,15.20
2019-05-19T12:31:14.070Z,15.20
2019-05-19T12:33:51.498Z,15.30
2019-05-19T12:36:13.308Z,15.30
2019-05-19T12:38:47.881Z,15.20
2019-05-19T12:41:16.667Z,15.10
2019-05-19T12:43:45.536Z,15.10
2019-05-19T12:46:16.686Z,15.00
2019-05-19T12:48:45.796Z,15.00
2019-05-19T12:51:14.630Z,14.90
2019-05-19T12:53:43.429Z,14.80
2019-05-19T12:56:13.210Z,14.80
2019-05-19T12:58:42.050Z,14.80
2019-05-19T13:01:13.954Z,14.80
2019-05-19T13:03:42.827Z,14.80
2019-05-19T13:06:11.803Z,14.70
2019-05-19T13:08:40.584Z,14.70
2019-05-19T13:11:09.363Z,14.70
2019-05-19T13:13:38.185Z,14.60
2019-05-19T13:16:07.004Z,14.60
2019-05-19T13:18:41.678Z,14.50
2019-05-19T13:21:13.517Z,14.50
2019-05-19T13:23:48.082Z,14.50
2019-05-19T13:26:16.872Z,14.40
2019-05-19T13:28:45.723Z,14.50
2019-05-19T13:31:20.258Z,14.50
2019-05-19T13:33:54.828Z,14.50
2019-05-19T13:36:23.604Z,14.50
2019-05-19T13:38:52.466Z,14.60
2019-05-19T13:41:27.120Z,14.70
2019-05-19T13:43:55.917Z,14.70
2019-05-19T13:46:24.689Z,14.80
2019-05-19T13:48:53.532Z,14.90
2019-05-19T13:51:25.343Z,15.00
2019-05-19T13:53:54.131Z,15.10
2019-05-19T13:56:22.966Z,15.20
2019-05-19T13:58:54.381Z,15.30
2019-05-19T14:01:28.786Z,15.50
2019-05-19T14:03:53.651Z,15.60
2019-05-19T14:06:25.881Z,15.80
2019-05-19T14:08:54.725Z,15.80
2019-05-19T14:11:23.580Z,15.90
2019-05-19T14:13:58.387Z,16.00
2019-05-19T14:16:27.160Z,16.00
2019-05-19T14:18:56.018Z,16.10
2019-05-19T14:21:30.751Z,16.00
2019-05-19T14:24:05.551Z,16.00
2019-05-19T14:26:35.301Z,16.00
2019-05-19T14:29:04.096Z,16.10
2019-05-19T14:31:34.016Z,16.10
2019-05-19T14:34:02.800Z,16.00
2019-05-19T14:36:31.585Z,16.00
2019-05-19T14:39:05.129Z,16.00
2019-05-19T14:41:38.544Z,16.00
2019-05-19T14:44:13.242Z,16.00
2019-05-19T14:46:42.099Z,15.90
2019-05-19T14:49:10.899Z,15.90
2019-05-19T14:51:39.746Z,15.90
2019-05-19T14:54:08.561Z,15.90
2019-05-19T14:56:39.915Z,15.90
2019-05-19T14:59:08.747Z,15.90
2019-05-19T15:01:37.519Z,15.90
2019-05-19T15:04:06.312Z,15.80
2019-05-19T15:06:35.174Z,15.80
2019-05-19T15:09:05.164Z,15.70
2019-05-19T15:11:33.977Z,15.80
2019-05-19T15:14:02.807Z,15.70
2019-05-19T15:16:33.614Z,15.70
2019-05-19T15:19:02.544Z,15.60
2019-05-19T15:21:31.975Z,15.60
2019-05-19T15:24:00.992Z,15.50
2019-05-19T15:26:29.896Z,15.50
2019-05-19T15:28:58.685Z,15.50
2019-05-19T15:31:27.472Z,15.40
2019-05-19T15:33:58.988Z,15.40
2019-05-19T15:36:27.786Z,15.30
2019-05-19T15:38:56.579Z,15.20
2019-05-19T15:41:25.481Z,15.10
2019-05-19T15:44:00.177Z,15.10
2019-05-19T15:46:34.792Z,15.00
2019-05-19T15:49:05.553Z,15.00
2019-05-19T15:51:37.826Z,15.00
2019-05-19T15:54:05.124Z,15.00
2019-05-19T15:56:34.876Z,15.00
2019-05-19T15:59:03.684Z,15.00
2019-05-19T16:01:32.521Z,15.00
2019-05-19T16:04:01.284Z,14.90
2019-05-19T16:06:32.050Z,14.90
2019-05-19T16:09:01.030Z,14.90
2019-05-19T16:11:35.769Z,14.90
2019-05-19T16:14:07.322Z,14.90
2019-05-19T16:16:41.464Z,14.90
2019-05-19T16:19:11.452Z,14.90
2019-05-19T16:21:46.155Z,14.80
2019-05-19T16:24:28.268Z,14.80
2019-05-19T16:27:05.712Z,14.70
2019-05-19T16:29:34.549Z,14.60
2019-05-19T16:32:03.311Z,14.60
2019-05-19T16:34:32.089Z,14.60
2019-05-19T16:37:00.972Z,14.60
2019-05-19T16:39:29.752Z,14.50
2019-05-19T16:41:58.572Z,14.50
2019-05-19T16:44:29.952Z,14.50
2019-05-19T16:47:01.853Z,14.50
2019-05-19T16:49:30.657Z,14.40
2019-05-19T16:52:05.326Z,14.40
2019-05-19T16:54:53.653Z,14.30
2019-05-19T16:57:22.551Z,14.30
2019-05-19T16:59:54.423Z,14.30
2019-05-19T17:02:26.300Z,14.30
2019-05-19T17:04:57.095Z,14.20
2019-05-19T17:07:29.020Z,14.10
2019-05-19T17:09:57.808Z,14.00
2019-05-19T17:12:26.651Z,14.00
2019-05-19T17:15:01.435Z,14.00
2019-05-19T17:17:33.547Z,14.00
2019-05-19T17:20:06.374Z,13.90
2019-05-19T17:22:35.170Z,13.90
2019-05-19T17:25:09.861Z,13.80
2019-05-19T17:27:39.608Z,13.80
2019-05-19T17:30:10.050Z,13.80
2019-05-19T17:32:38.868Z,13.70
2019-05-19T17:35:09.826Z,13.70
2019-05-19T17:37:41.211Z,13.60
2019-05-19T17:40:10.536Z,13.60
2019-05-19T17:42:41.985Z,13.60
2019-05-19T17:45:13.895Z,13.60
2019-05-19T17:47:43.096Z,13.50
2019-05-19T17:50:13.755Z,13.50
2019-05-19T17:52:42.747Z,13.40
2019-05-19T17:55:11.720Z,13.40
2019-05-19T17:57:41.416Z,13.40
2019-05-19T18:00:12.794Z,13.40
2019-05-19T18:02:41.642Z,13.40
2019-05-19T18:05:11.405Z,13.40
2019-05-19T18:07:40.216Z,13.40
2019-05-19T18:10:10.165Z,13.30
2019-05-19T18:12:42.043Z,13.30
2019-05-19T18:15:10.845Z,13.30
2019-05-19T18:17:39.686Z,13.20
2019-05-19T18:20:22.866Z,13.20
2019-05-19T18:22:41.513Z,13.10
2019-05-19T18:25:10.339Z,13.10
2019-05-19T18:27:39.109Z,13.20
2019-05-19T18:30:07.981Z,13.10
2019-05-19T18:32:42.642Z,13.10
2019-05-19T18:35:17.176Z,13.10
2019-05-19T18:37:47.983Z,13.10
2019-05-19T18:40:19.404Z,13.00
2019-05-19T18:42:54.172Z,13.00
2019-05-19T18:45:25.749Z,13.00
2019-05-19T18:48:00.375Z,12.90
2019-05-19T18:50:32.234Z,12.90
2019-05-19T18:53:04.297Z,12.90
2019-05-19T18:55:39.027Z,12.90
2019-05-19T18:58:07.897Z,12.80
2019-05-19T19:00:38.383Z,12.80
2019-05-19T19:03:07.734Z,12.80
2019-05-19T19:05:36.945Z,12.70
2019-05-19T19:08:05.780Z,12.70
2019-05-19T19:10:40.330Z,12.70
2019-05-19T19:13:09.112Z,12.60
2019-05-19T19:15:37.912Z,12.60
2019-05-19T19:18:08.755Z,12.60
2019-05-19T19:20:38.522Z,12.60
2019-05-19T19:23:07.320Z,12.60
2019-05-19T19:25:36.136Z,12.60
2019-05-19T19:28:10.859Z,12.60
2019-05-19T19:30:45.477Z,12.50
2019-05-19T19:33:14.254Z,12.50
2019-05-19T19:35:44.970Z,12.50
2019-05-19T19:38:13.841Z,12.50
2019-05-19T19:40:42.635Z,12.40
2019-05-19T19:43:11.424Z,12.40
2019-05-19T19:45:40.346Z,12.40
2019-05-19T19:48:09.205Z,12.40
2019-05-19T19:50:37.973Z,12.40
2019-05-19T19:53:09.415Z,12.40
2019-05-19T19:55:43.937Z,12.40
2019-05-19T19:58:15.774Z,12.30
2019-05-19T20:00:50.483Z,12.30
2019-05-19T20:03:19.484Z,12.30
2019-05-19T20:05:48.277Z,12.30
2019-05-19T20:08:20.459Z,12.20
2019-05-19T20:10:52.283Z,12.20
2019-05-19T20:13:21.107Z,12.20
2019-05-19T20:15:53.178Z,12.20
2019-05-19T20:18:21.913Z,12.20
2019-05-19T20:20:50.741Z,12.10
2019-05-19T20:23:20.538Z,12.10
2019-05-19T20:25:49.416Z,12.10
2019-05-19T20:28:18.249Z,12.10
2019-05-19T20:30:52.859Z,12.10
2019-05-19T20:33:21.640Z,12.10
2019-05-19T20:35:56.436Z,12.10
2019-05-19T20:38:25.216Z,12.10
2019-05-19T20:40:54.016Z,12.10
2019-05-19T20:43:22.853Z,12.00
2019-05-19T20:45:51.631Z,12.00
2019-05-19T20:48:23.037Z,12.00
2019-05-19T20:50:51.948Z,12.00
2019-05-19T20:53:20.721Z,11.90
2019-05-19T20:55:51.451Z,11.90
2019-05-19T20:58:20.312Z,11.90
2019-05-19T21:00:54.904Z,12.00
2019-05-19T21:03:26.484Z,12.00
2019-05-19T21:05:56.228Z,12.00
2019-05-19T21:08:25.058Z,12.00
2019-05-19T21:10:54.949Z,11.90
2019-05-19T21:13:23.716Z,12.00
2019-05-19T21:15:52.509Z,12.00
2019-05-19T21:18:21.432Z,12.00
2019-05-19T21:20:52.938Z,11.90
2019-05-19T21:23:21.731Z,11.90
2019-05-19T21:25:50.563Z,11.90
2019-05-19T21:28:22.368Z,11.90
2019-05-19T21:31:04.994Z,11.90
2019-05-19T21:33:24.605Z,11.90
2019-05-19T21:35:59.208Z,11.90
2019-05-19T21:38:27.994Z,11.90
2019-05-19T21:40:56.830Z,11.90
2019-05-19T21:43:28.228Z,11.90
2019-05-19T21:45:57.007Z,11.90
2019-05-19T21:48:35.178Z,11.90
2019-05-19T21:51:09.695Z,11.90
2019-05-19T21:53:38.564Z,11.80
2019-05-19T21:56:13.415Z,11.90
2019-05-19T21:58:45.325Z,11.80
2019-05-19T22:01:22.763Z,11.80
2019-05-19T22:03:46.296Z,11.80
2019-05-19T22:06:16.864Z,11.90
2019-05-19T22:08:46.673Z,11.90
2019-05-19T22:11:18.115Z,11.90
2019-05-19T22:13:47.870Z,11.90
2019-05-19T22:16:17.583Z,11.90
2019-05-19T22:18:46.420Z,11.90
2019-05-19T22:21:15.207Z,11.90
2019-05-19T22:23:43.990Z,11.90
2019-05-19T22:26:15.696Z,11.90
2019-05-19T22:28:50.272Z,11.90
2019-05-19T22:31:36.222Z,11.90
2019-05-19T22:33:55.310Z,11.90
2019-05-19T22:36:24.176Z,11.90
2019-05-19T22:38:53.005Z,11.90
2019-05-19T22:41:21.774Z,11.90
2019-05-19T22:43:50.562Z,11.80
2019-05-19T22:46:19.402Z,11.90
2019-05-19T22:48:48.179Z,11.80
2019-05-19T22:51:16.973Z,11.90
2019-05-19T22:53:45.809Z,11.90
2019-05-19T22:56:14.648Z,11.90
2019-05-19T22:58:43.404Z,11.80
2019-05-19T23:01:12.299Z,11.90
2019-05-19T23:03:43.712Z,11.90
2019-05-19T23:06:12.493Z,11.90
2019-05-19T23:08:41.421Z,11.90
2019-05-19T23:11:11.192Z,11.90
2019-05-19T23:13:39.988Z,11.90
2019-05-19T23:16:09.858Z,11.90
2019-05-19T23:18:41.260Z,11.90
2019-05-19T23:21:10.031Z,11.90
2019-05-19T23:23:38.883Z,11.90
2019-05-19T23:26:10.270Z,11.80
2019-05-19T23:28:39.057Z,11.80
2019-05-19T23:31:07.893Z,11.80
2019-05-19T23:33:42.400Z,11.80
2019-05-19T23:36:11.252Z,11.90
2019-05-19T23:38:40.086Z,11.80
2019-05-19T23:41:11.511Z,11.80
2019-05-19T23:43:40.289Z,11.90
2019-05-19T23:46:09.126Z,11.80
2019-05-19T23:48:38.891Z,11.80
2019-05-19T23:51:07.663Z,11.80
2019-05-19T23:53:36.520Z,11.80
2019-05-19T23:56:06.567Z,11.90
2019-05-19T23:58:35.381Z,11.90
